Time;durP1;ratioP1;P1;durP2;ratioP2;P2;SDS_P1;SDS_P2;PMS_P1;PMS_P2;Temp;Humidity;BMP_temperature;BMP_pressure;BME280_temperature;BME280_humidity;BME280_pressure;Samples;Min_cycle;Max_cycle;Signal;HPM_P1;HPM_P2
2021/10/29 00:01:54;;;;;;;40.67;25.02;;;;;;;;;;5056221;28;20039;-60
2021/10/29 00:04:20;;;;;;;38.53;24.05;;;;;;;;;;5047525;28;20025;-60
2021/10/29 00:06:46;;;;;;;35.47;23.58;;;;;;;;;;5054901;28;20079;-60
2021/10/29 00:09:11;;;;;;;38.08;24.65;;;;;;;;;;5055868;28;20782;-59
2021/10/29 00:11:37;;;;;;;39.53;24.95;;;;;;;;;;5056186;28;20032;-60
2021/10/29 00:14:02;;;;;;;39.15;24.90;;;;;;;;;;5052515;28;20049;-59
2021/10/29 00:16:28;;;;;;;39.55;25.15;;;;;;;;;;5056117;28;20363;-60
2021/10/29 00:18:53;;;;;;;40.17;24.75;;;;;;;;;;5055958;28;20041;-60
2021/10/29 00:21:19;;;;;;;40.08;25.42;;;;;;;;;;5046564;28;20025;-59
2021/10/29 00:23:44;;;;;;;41.10;25.70;;;;;;;;;;5055912;28;20071;-59
2021/10/29 00:26:10;;;;;;;39.45;25.10;;;;;;;;;;5055937;28;20033;-60
2021/10/29 00:28:37;;;;;;;41.92;25.17;;;;;;;;;;5055573;28;20057;-60
2021/10/29 00:31:04;;;;;;;40.53;25.75;;;;;;;;;;5036418;28;20029;-60
2021/10/29 00:33:29;;;;;;;42.20;26.27;;;;;;;;;;5055677;28;20495;-60
2021/10/29 00:35:55;;;;;;;37.47;24.02;;;;;;;;;;5051694;28;20021;-60
2021/10/29 00:38:20;;;;;;;41.38;25.88;;;;;;;;;;5047101;28;20451;-60
2021/10/29 00:40:46;;;;;;;44.28;26.48;;;;;;;;;;5054129;28;20048;-60
2021/10/29 00:43:12;;;;;;;49.58;30.40;;;;;;;;;;5055324;28;20032;-60
2021/10/29 00:45:37;;;;;;;44.38;27.70;;;;;;;;;;5055179;28;20033;-60
2021/10/29 00:48:03;;;;;;;40.83;26.90;;;;;;;;;;5055185;28;20487;-60
2021/10/29 00:50:29;;;;;;;40.50;25.38;;;;;;;;;;5055256;28;20033;-60
2021/10/29 00:52:55;;;;;;;35.97;23.80;;;;;;;;;;5055315;28;20028;-60
2021/10/29 00:55:21;;;;;;;36.40;23.48;;;;;;;;;;5055179;28;20064;-60
2021/10/29 00:57:46;;;;;;;37.08;23.52;;;;;;;;;;5055325;28;20044;-59
2021/10/29 01:00:12;;;;;;;44.88;24.65;;;;;;;;;;5055226;28;20553;-59
2021/10/29 01:02:38;;;;;;;37.35;24.13;;;;;;;;;;5054993;28;20485;-59
2021/10/29 01:05:04;;;;;;;38.00;23.75;;;;;;;;;;5052237;28;20029;-60
2021/10/29 01:07:34;;;;;;;33.85;22.75;;;;;;;;;;5055055;28;20013;-59
2021/10/29 01:09:59;;;;;;;41.60;25.03;;;;;;;;;;5054875;28;20031;-60
2021/10/29 01:12:25;;;;;;;36.40;23.48;;;;;;;;;;5054655;28;20111;-60
2021/10/29 01:14:57;;;;;;;35.67;23.30;;;;;;;;;;5054819;28;20072;-60
2021/10/29 01:17:23;;;;;;;34.15;21.83;;;;;;;;;;5046207;28;20032;-60
2021/10/29 01:19:52;;;;;;;34.33;22.15;;;;;;;;;;5054779;28;20117;-61
2021/10/29 01:22:18;;;;;;;37.88;24.00;;;;;;;;;;5054848;28;20028;-60
2021/10/29 01:24:43;;;;;;;43.05;26.25;;;;;;;;;;5054606;28;20021;-60
2021/10/29 01:27:12;;;;;;;43.60;25.40;;;;;;;;;;5054540;28;20467;-60
2021/10/29 01:29:38;;;;;;;41.72;24.60;;;;;;;;;;5054538;28;20356;-60
2021/10/29 01:32:08;;;;;;;37.42;23.40;;;;;;;;;;5050805;28;20036;-60
2021/10/29 01:34:37;;;;;;;30.65;21.23;;;;;;;;;;5054370;28;20027;-59
2021/10/29 01:37:07;;;;;;;34.85;21.77;;;;;;;;;;5054457;28;20365;-60
2021/10/29 01:39:33;;;;;;;33.10;20.92;;;;;;;;;;5054302;28;20104;-60
2021/10/29 01:41:58;;;;;;;32.05;21.65;;;;;;;;;;5054385;28;20037;-60
2021/10/29 01:44:24;;;;;;;28.25;19.60;;;;;;;;;;5054266;28;20410;-59
2021/10/29 16:03:16;;;;;;;60.85;27.30;;;;;;;;;;5076420;28;20081;-64
2021/10/29 16:19:22;;;;;;;134.10;66.25;;;;;;;;;;5076789;28;20071;-65
2021/10/29 16:21:48;;;;;;;111.95;56.00;;;;;;;;;;5085979;28;20052;-64
2021/10/29 16:24:13;;;;;;;68.65;36.38;;;;;;;;;;5081340;28;20032;-65
2021/10/29 16:26:39;;;;;;;36.83;20.33;;;;;;;;;;5075935;28;20386;-65
2021/10/29 16:29:08;;;;;;;26.48;14.23;;;;;;;;;;5075876;28;20033;-65
2021/10/29 16:31:37;;;;;;;31.63;15.70;;;;;;;;;;5060462;28;20017;-66
2021/10/29 16:34:02;;;;;;;86.15;39.85;;;;;;;;;;5075880;28;20029;-66
2021/10/29 16:36:28;;;;;;;49.90;25.10;;;;;;;;;;5075607;28;20375;-64
2021/10/29 16:38:54;;;;;;;36.88;19.73;;;;;;;;;;5075417;28;20032;-64
2021/10/29 16:41:19;;;;;;;50.88;23.88;;;;;;;;;;5075568;28;20094;-64
2021/10/29 16:43:45;;;;;;;54.72;25.85;;;;;;;;;;5075386;28;20024;-64
2021/10/29 16:46:11;;;;;;;60.10;28.13;;;;;;;;;;5075455;28;20028;-65
2021/10/29 16:48:36;;;;;;;77.45;30.50;;;;;;;;;;5075351;28;20074;-64
2021/10/29 16:51:02;;;;;;;82.10;28.80;;;;;;;;;;5075567;28;20470;-64
2021/10/29 16:53:29;;;;;;;89.60;34.95;;;;;;;;;;5063479;28;20028;-63
2021/10/29 16:55:54;;;;;;;134.15;57.58;;;;;;;;;;5083763;28;20016;-64
2021/10/29 16:58:20;;;;;;;86.32;41.00;;;;;;;;;;5085669;28;20035;-64
2021/10/29 17:00:45;;;;;;;71.05;33.17;;;;;;;;;;5067210;28;20013;-61
2021/10/29 17:03:11;;;;;;;75.13;35.00;;;;;;;;;;5085484;28;20032;-61
2021/10/29 17:05:37;;;;;;;95.45;38.95;;;;;;;;;;5068163;28;20044;-61
2021/10/29 17:08:04;;;;;;;128.05;54.75;;;;;;;;;;5094416;28;20040;-61
2021/10/29 17:10:30;;;;;;;182.52;65.95;;;;;;;;;;5094806;28;20519;-61
2021/10/29 17:12:58;;;;;;;105.18;41.42;;;;;;;;;;5076639;28;20055;-61
2021/10/29 17:15:23;;;;;;;78.57;34.90;;;;;;;;;;5090858;28;20482;-62
2021/10/29 17:17:49;;;;;;;73.60;36.20;;;;;;;;;;5086116;28;20107;-61
2021/10/29 17:20:16;;;;;;;216.65;76.82;;;;;;;;;;5074610;28;20016;-61
2021/10/29 17:22:41;;;;;;;244.73;95.25;;;;;;;;;;5074351;28;20093;-61
2021/10/29 17:25:08;;;;;;;246.20;102.25;;;;;;;;;;5056695;28;20550;-62
2021/10/29 17:27:34;;;;;;;195.65;83.40;;;;;;;;;;5083487;28;20046;-61
2021/10/29 17:29:59;;;;;;;166.80;77.53;;;;;;;;;;5082385;28;20028;-62
2021/10/29 17:32:25;;;;;;;222.65;105.43;;;;;;;;;;5085651;28;20154;-61
2021/10/29 17:34:50;;;;;;;217.85;108.78;;;;;;;;;;5088788;28;20032;-61
2021/10/29 17:37:16;;;;;;;176.13;92.63;;;;;;;;;;5090095;28;20441;-61
2021/10/29 17:39:42;;;;;;;185.80;90.95;;;;;;;;;;5094502;28;20023;-62
2021/10/29 17:42:08;;;;;;;106.93;56.70;;;;;;;;;;5094508;28;20023;-62
2021/10/29 17:44:34;;;;;;;76.60;40.63;;;;;;;;;;5094735;28;20445;-61
2021/10/29 17:47:02;;;;;;;67.53;37.72;;;;;;;;;;5094244;28;20028;-61
2021/10/29 17:49:28;;;;;;;67.40;37.28;;;;;;;;;;5093983;28;20089;-62
2021/10/29 17:51:55;;;;;;;71.47;37.70;;;;;;;;;;5094666;28;20102;-62
2021/10/29 17:54:21;;;;;;;87.93;43.15;;;;;;;;;;5094355;28;20020;-62
2021/10/29 17:56:47;;;;;;;75.82;38.95;;;;;;;;;;5094230;28;20078;-62
2021/10/29 17:59:12;;;;;;;70.22;34.80;;;;;;;;;;5094068;28;20074;-62
2021/10/29 18:01:39;;;;;;;68.03;34.13;;;;;;;;;;5094260;28;20024;-62
2021/10/29 18:04:04;;;;;;;63.28;34.47;;;;;;;;;;5090902;28;20128;-62
2021/10/29 18:06:30;;;;;;;93.13;48.97;;;;;;;;;;5093968;28;20032;-62
2021/10/29 18:09:06;;;;;;;111.80;60.97;;;;;;;;;;5093738;28;20088;-62
2021/10/29 18:11:34;;;;;;;123.32;69.38;;;;;;;;;;5087724;28;20108;-61
2021/10/29 18:13:59;;;;;;;107.95;58.88;;;;;;;;;;5073123;28;20071;-62
2021/10/29 18:16:27;;;;;;;126.53;67.97;;;;;;;;;;5073707;28;20028;-62
2021/10/29 18:18:55;;;;;;;107.57;59.35;;;;;;;;;;5073313;28;20025;-62
2021/10/29 18:21:21;;;;;;;92.15;49.03;;;;;;;;;;5073623;28;20067;-62
2021/10/29 18:23:52;;;;;;;113.68;62.22;;;;;;;;;;5075888;28;20031;-62
2021/10/29 18:26:18;;;;;;;94.03;51.08;;;;;;;;;;5082899;28;20028;-62
2021/10/29 18:28:44;;;;;;;98.47;54.50;;;;;;;;;;5082473;28;20016;-62
2021/10/29 18:31:11;;;;;;;95.65;54.78;;;;;;;;;;5081180;28;20024;-62
2021/10/29 18:33:37;;;;;;;98.97;54.78;;;;;;;;;;5064872;28;20020;-63
2021/10/29 18:36:02;;;;;;;93.43;50.97;;;;;;;;;;5084777;28;20028;-63
2021/10/29 18:38:28;;;;;;;78.30;44.40;;;;;;;;;;5084460;28;20020;-65
2021/10/29 18:40:53;;;;;;;75.53;43.60;;;;;;;;;;5083679;28;20089;-65
2021/10/29 18:43:19;;;;;;;84.35;46.10;;;;;;;;;;5079752;28;20450;-63
2021/10/29 18:45:44;;;;;;;100.50;56.05;;;;;;;;;;5080662;28;20032;-63
2021/10/29 18:48:10;;;;;;;109.57;59.45;;;;;;;;;;5083666;28;20382;-64
2021/10/29 18:50:35;;;;;;;108.88;57.92;;;;;;;;;;5080532;28;20051;-63
2021/10/29 18:53:01;;;;;;;115.13;58.78;;;;;;;;;;5079842;28;20070;-63
2021/10/29 18:55:26;;;;;;;123.97;65.05;;;;;;;;;;5081079;28;20021;-61
2021/10/29 18:57:52;;;;;;;122.20;66.00;;;;;;;;;;5081106;28;20073;-61
2021/10/29 19:00:17;;;;;;;124.93;65.28;;;;;;;;;;5082754;28;20024;-61
2021/10/29 19:02:46;;;;;;;137.55;71.07;;;;;;;;;;5081614;28;20040;-61
2021/10/29 19:05:15;;;;;;;128.70;67.20;;;;;;;;;;5079179;28;20032;-61
2021/10/29 19:07:41;;;;;;;128.75;70.32;;;;;;;;;;5080703;28;20044;-61
2021/10/29 19:10:08;;;;;;;141.68;75.20;;;;;;;;;;5080919;28;20182;-61
2021/10/29 19:12:33;;;;;;;204.18;107.97;;;;;;;;;;5082795;28;20449;-61
2021/10/29 19:15:02;;;;;;;225.02;105.80;;;;;;;;;;5081185;28;20414;-61
2021/10/29 19:17:27;;;;;;;173.18;83.90;;;;;;;;;;5081222;28;20031;-61
2021/10/29 19:19:53;;;;;;;126.25;62.85;;;;;;;;;;5082336;28;20020;-61
2021/10/29 19:22:19;;;;;;;123.82;62.97;;;;;;;;;;5080687;28;20024;-61
2021/10/29 19:24:48;;;;;;;142.98;69.95;;;;;;;;;;5081197;28;20028;-63
2021/10/29 19:27:14;;;;;;;352.40;135.18;;;;;;;;;;5087466;28;20017;-62
2021/10/29 19:29:40;;;;;;;279.48;111.30;;;;;;;;;;5088830;28;20170;-62
2021/10/29 19:32:08;;;;;;;200.20;85.10;;;;;;;;;;5086241;28;20102;-62
2021/10/29 19:34:37;;;;;;;532.03;221.18;;;;;;;;;;5074921;28;20105;-64
2021/10/29 19:37:05;;;;;;;300.20;123.18;;;;;;;;;;5085160;28;20346;-63
2021/10/29 19:39:38;;;;;;;104.88;58.58;;;;;;;;;;5076680;28;20382;-63
2021/10/29 19:42:06;;;;;;;179.85;77.30;;;;;;;;;;5076737;28;20037;-62
2021/10/29 19:44:32;;;;;;;225.95;86.82;;;;;;;;;;5076685;28;20027;-62
2021/10/29 19:46:57;;;;;;;108.85;55.42;;;;;;;;;;5076927;28;20115;-62
2021/10/29 19:49:23;;;;;;;191.40;83.53;;;;;;;;;;5058519;28;20121;-62
2021/10/29 19:51:48;;;;;;;206.07;84.43;;;;;;;;;;5076570;28;20066;-63
2021/10/29 19:54:17;;;;;;;191.50;83.65;;;;;;;;;;5076422;28;20013;-63
2021/10/29 19:56:43;;;;;;;97.88;50.58;;;;;;;;;;5076366;28;20017;-63
2021/10/29 19:59:10;;;;;;;77.40;44.17;;;;;;;;;;5078065;28;20040;-64
2021/10/29 20:01:36;;;;;;;69.82;39.90;;;;;;;;;;5075694;28;20428;-63
2021/10/29 20:04:02;;;;;;;84.65;45.22;;;;;;;;;;5096268;28;20020;-63
2021/10/29 20:06:27;;;;;;;106.97;49.33;;;;;;;;;;5096076;28;20028;-63
2021/10/29 20:08:53;;;;;;;97.75;47.33;;;;;;;;;;5095078;28;20105;-64
2021/10/29 20:11:18;;;;;;;108.68;54.05;;;;;;;;;;5096023;28;20027;-64
2021/10/29 20:13:44;;;;;;;106.78;52.22;;;;;;;;;;5096423;28;20027;-63
2021/10/29 20:16:10;;;;;;;99.72;48.25;;;;;;;;;;5096264;28;20078;-63
2021/10/29 20:18:40;;;;;;;104.22;48.38;;;;;;;;;;5095884;28;20058;-64
2021/10/29 20:21:05;;;;;;;108.03;51.83;;;;;;;;;;5077570;28;20030;-63
2021/10/29 20:23:31;;;;;;;125.97;56.83;;;;;;;;;;5089436;28;20016;-64
2021/10/29 20:25:56;;;;;;;110.90;53.35;;;;;;;;;;5084606;28;20028;-64
2021/10/29 20:28:23;;;;;;;101.07;49.70;;;;;;;;;;5074086;28;20012;-63
2021/10/29 20:30:52;;;;;;;103.07;49.65;;;;;;;;;;5086451;28;20016;-64
2021/10/29 20:33:17;;;;;;;126.40;59.75;;;;;;;;;;5067064;28;20350;-64
2021/10/29 20:35:43;;;;;;;160.45;68.50;;;;;;;;;;5096002;28;20035;-64
2021/10/29 20:38:08;;;;;;;103.43;51.78;;;;;;;;;;5095061;28;20016;-64
2021/10/29 20:40:34;;;;;;;88.68;49.10;;;;;;;;;;5092133;28;20083;-63
2021/10/29 20:42:59;;;;;;;107.65;57.25;;;;;;;;;;5082625;28;20023;-63
2021/10/29 20:45:28;;;;;;;117.78;63.13;;;;;;;;;;5085541;28;20587;-63
2021/10/29 20:47:54;;;;;;;121.10;63.53;;;;;;;;;;5085574;28;20112;-64
2021/10/29 20:50:20;;;;;;;142.70;66.78;;;;;;;;;;5079141;28;20035;-63
2021/10/29 20:52:45;;;;;;;127.57;63.63;;;;;;;;;;5084095;28;20025;-64
2021/10/29 20:55:11;;;;;;;121.50;63.63;;;;;;;;;;5085475;28;20053;-64
2021/10/29 20:57:37;;;;;;;124.22;62.55;;;;;;;;;;5081660;28;20012;-61
2021/10/29 21:00:04;;;;;;;122.05;64.32;;;;;;;;;;5085855;28;20025;-61
2021/10/29 21:02:30;;;;;;;191.20;90.35;;;;;;;;;;5072976;28;20090;-61
2021/10/29 21:04:56;;;;;;;180.32;86.50;;;;;;;;;;5084945;28;20056;-61
2021/10/29 21:07:21;;;;;;;109.82;60.78;;;;;;;;;;5083386;28;20052;-64
2021/10/29 21:09:53;;;;;;;127.30;65.95;;;;;;;;;;5062563;28;20024;-61
2021/10/29 21:12:19;;;;;;;105.25;55.35;;;;;;;;;;5075082;28;20470;-64
2021/10/29 21:14:45;;;;;;;107.65;55.47;;;;;;;;;;5075018;28;20101;-64
2021/10/29 21:17:11;;;;;;;112.22;53.40;;;;;;;;;;5075005;28;20040;-64
2021/10/29 21:19:36;;;;;;;112.18;53.72;;;;;;;;;;5074816;28;20056;-61
2021/10/29 21:22:05;;;;;;;98.53;53.67;;;;;;;;;;5074829;28;20032;-61
2021/10/29 21:24:30;;;;;;;248.50;89.45;;;;;;;;;;5074687;28;20028;-62
2021/10/29 21:26:57;;;;;;;235.65;153.75;;;;;;;;;;5073952;28;20040;-62
2021/10/29 21:29:23;;;;;;;197.50;104.75;;;;;;;;;;5074424;28;20035;-61
2021/10/29 21:31:49;;;;;;;168.60;86.68;;;;;;;;;;5056537;28;20021;-61
2021/10/29 21:34:17;;;;;;;119.60;60.38;;;;;;;;;;5074669;28;20024;-61
2021/10/29 21:36:42;;;;;;;85.30;45.53;;;;;;;;;;5074797;28;20033;-61
2021/10/29 21:39:08;;;;;;;81.95;43.45;;;;;;;;;;5074350;28;20023;-61
2021/10/29 21:41:33;;;;;;;106.90;54.15;;;;;;;;;;5073292;28;20591;-61
2021/10/29 21:43:59;;;;;;;100.75;50.42;;;;;;;;;;5074218;28;20025;-61
2021/10/29 21:46:24;;;;;;;99.93;50.60;;;;;;;;;;5074232;28;20059;-62
2021/10/29 21:48:50;;;;;;;216.80;79.88;;;;;;;;;;5073425;28;20434;-63
2021/10/29 21:51:16;;;;;;;155.68;60.53;;;;;;;;;;5074296;28;20108;-62
2021/10/29 21:53:41;;;;;;;447.17;145.32;;;;;;;;;;5072884;28;20013;-62
2021/10/29 21:56:07;;;;;;;314.58;122.95;;;;;;;;;;5074197;28;20074;-66
2021/10/29 21:58:32;;;;;;;174.75;76.28;;;;;;;;;;5074023;28;20461;-67
2021/10/29 22:00:59;;;;;;;126.05;55.83;;;;;;;;;;5074492;28;20027;-67
2021/10/29 22:03:24;;;;;;;97.22;44.30;;;;;;;;;;5056041;28;20393;-67
2021/10/29 22:05:51;;;;;;;114.32;50.50;;;;;;;;;;5073713;28;20119;-68
2021/10/29 22:08:17;;;;;;;80.60;39.50;;;;;;;;;;5055384;28;20041;-68
2021/10/29 22:10:45;;;;;;;73.05;37.33;;;;;;;;;;5073774;28;20033;-62
2021/10/29 22:13:11;;;;;;;94.30;44.22;;;;;;;;;;5073981;28;20016;-62
2021/10/29 22:15:37;;;;;;;104.47;46.03;;;;;;;;;;5073742;28;20427;-62
2021/10/29 22:18:02;;;;;;;95.15;44.55;;;;;;;;;;5073716;28;20016;-64
2021/10/29 22:20:29;;;;;;;155.07;59.70;;;;;;;;;;5073448;28;20029;-64
2021/10/29 22:22:55;;;;;;;64.47;35.05;;;;;;;;;;5056175;28;20088;-64
2021/10/29 22:25:20;;;;;;;87.10;42.72;;;;;;;;;;5055837;28;20033;-65
2021/10/29 22:27:47;;;;;;;118.53;53.28;;;;;;;;;;5073494;28;20424;-65
2021/10/29 22:30:14;;;;;;;75.72;38.35;;;;;;;;;;5073540;28;20086;-64
2021/10/29 22:32:39;;;;;;;103.63;48.67;;;;;;;;;;5055537;28;20020;-65
2021/10/29 22:35:06;;;;;;;168.75;64.82;;;;;;;;;;5055740;28;20413;-65
2021/10/29 22:37:32;;;;;;;108.80;54.88;;;;;;;;;;5055865;28;20474;-64
2021/10/29 22:39:58;;;;;;;80.85;40.65;;;;;;;;;;5073806;28;20029;-65
2021/10/29 22:42:23;;;;;;;64.85;34.47;;;;;;;;;;5073513;28;20466;-65
2021/10/29 22:44:50;;;;;;;66.75;34.88;;;;;;;;;;5073274;28;20532;-64
2021/10/29 22:47:15;;;;;;;65.45;35.83;;;;;;;;;;5073360;28;20531;-65
2021/10/29 22:49:41;;;;;;;63.17;33.95;;;;;;;;;;5055462;28;20033;-65
2021/10/29 22:52:07;;;;;;;54.20;30.73;;;;;;;;;;5055669;28;20154;-65
2021/10/29 22:54:33;;;;;;;58.20;31.92;;;;;;;;;;5073347;28;20115;-65
2021/10/29 22:56:59;;;;;;;57.95;32.58;;;;;;;;;;5073199;28;20013;-65
2021/10/29 23:10:45;;;;;;;72.95;40.92;;;;;;;;;;6163650;22;1509805;-66
2021/10/29 23:13:11;;;;;;;69.70;38.70;;;;;;;;;;6224623;23;20015;-66
2021/10/29 23:15:36;;;;;;;62.85;35.20;;;;;;;;;;6224410;23;20000;-66
2021/10/29 23:18:02;;;;;;;61.92;35.08;;;;;;;;;;6224374;23;20008;-67
2021/10/29 23:20:28;;;;;;;79.40;45.95;;;;;;;;;;6224360;23;19993;-66
2021/10/29 23:22:53;;;;;;;66.63;38.17;;;;;;;;;;6224486;23;20004;-67
2021/10/29 23:25:18;;;;;;;58.28;31.98;;;;;;;;;;6224294;23;20020;-66
2021/10/29 23:27:44;;;;;;;91.68;52.88;;;;;;;;;;6224480;23;20005;-67
2021/10/29 23:30:09;;;;;;;90.57;48.83;;;;;;;;;;6224629;23;20301;-65
2021/10/29 23:32:35;;;;;;;70.97;37.10;;;;;;;;;;6224684;23;20032;-65
2021/10/29 23:35:00;;;;;;;67.80;36.00;;;;;;;;;;6224664;23;19996;-64
2021/10/29 23:37:26;;;;;;;63.92;34.17;;;;;;;;;;6224431;23;20004;-61
2021/10/29 23:39:51;;;;;;;58.67;32.72;;;;;;;;;;6224472;23;20007;-61
2021/10/29 23:42:17;;;;;;;68.82;37.22;;;;;;;;;;6224395;23;20008;-61
2021/10/29 23:44:43;;;;;;;74.07;38.53;;;;;;;;;;6197695;23;19996;-61
2021/10/29 23:47:08;;;;;;;113.60;58.67;;;;;;;;;;6224505;23;20004;-61
2021/10/29 23:49:38;;;;;;;78.95;43.92;;;;;;;;;;6198115;23;20000;-61
2021/10/29 23:52:05;;;;;;;58.85;33.10;;;;;;;;;;6224396;23;20004;-61
2021/10/29 23:54:30;;;;;;;48.80;26.48;;;;;;;;;;6224263;23;20438;-61
2021/10/29 23:56:57;;;;;;;40.13;23.20;;;;;;;;;;6224132;23;20032;-61
2021/10/29 23:59:22;;;;;;;36.45;22.15;;;;;;;;;;6224156;23;20083;-61
